sensor_id;sensor_type;location;lat;lon;timestamp;P1;durP1;ratioP1;P2;durP2;ratioP2
17253;SDS011;32542;52.832;13.816;2023-03-03T00:01:51;11.52;;;7.95;;
17253;SDS011;32542;52.832;13.816;2023-03-03T00:04:55;11.60;;;7.70;;
17253;SDS011;32542;52.832;13.816;2023-03-03T00:07:58;12.82;;;8.18;;
17253;SDS011;32542;52.832;13.816;2023-03-03T00:11:02;12.40;;;7.82;;
17253;SDS011;32542;52.832;13.816;2023-03-03T00:14:13;11.80;;;7.80;;
17253;SDS011;32542;52.832;13.816;2023-03-03T00:17:21;14.35;;;7.53;;
17253;SDS011;32542;52.832;13.816;2023-03-03T00:20:35;9.63;;;7.75;;
17253;SDS011;32542;52.832;13.816;2023-03-03T00:23:39;13.35;;;8.30;;
17253;SDS011;32542;52.832;13.816;2023-03-03T00:26:44;11.05;;;7.65;;
17253;SDS011;32542;52.832;13.816;2023-03-03T00:29:48;10.50;;;7.18;;
17253;SDS011;32542;52.832;13.816;2023-03-03T00:32:54;10.48;;;6.72;;
17253;SDS011;32542;52.832;13.816;2023-03-03T00:36:04;10.75;;;7.57;;
17253;SDS011;32542;52.832;13.816;2023-03-03T00:39:26;9.88;;;7.20;;
17253;SDS011;32542;52.832;13.816;2023-03-03T00:42:32;10.00;;;7.25;;
17253;SDS011;32542;52.832;13.816;2023-03-03T00:45:38;9.52;;;6.63;;
17253;SDS011;32542;52.832;13.816;2023-03-03T00:48:46;10.90;;;6.68;;
17253;SDS011;32542;52.832;13.816;2023-03-03T00:51:51;10.32;;;7.40;;
17253;SDS011;32542;52.832;13.816;2023-03-03T00:54:55;10.90;;;7.03;;
17253;SDS011;32542;52.832;13.816;2023-03-03T00:57:58;11.98;;;6.65;;
17253;SDS011;32542;52.832;13.816;2023-03-03T01:01:06;8.30;;;6.57;;
17253;SDS011;32542;52.832;13.816;2023-03-03T01:04:17;9.25;;;6.47;;
17253;SDS011;32542;52.832;13.816;2023-03-03T01:07:22;11.57;;;6.30;;
17253;SDS011;32542;52.832;13.816;2023-03-03T01:10:25;10.35;;;7.13;;
17253;SDS011;32542;52.832;13.816;2023-03-03T01:13:33;11.73;;;6.60;;
17253;SDS011;32542;52.832;13.816;2023-03-03T01:16:39;8.88;;;6.35;;
17253;SDS011;32542;52.832;13.816;2023-03-03T01:19:42;8.68;;;6.57;;
17253;SDS011;32542;52.832;13.816;2023-03-03T01:22:47;10.13;;;7.18;;
17253;SDS011;32542;52.832;13.816;2023-03-03T01:25:50;9.43;;;6.57;;
17253;SDS011;32542;52.832;13.816;2023-03-03T01:28:53;7.90;;;5.82;;
17253;SDS011;32542;52.832;13.816;2023-03-03T01:31:56;8.07;;;6.32;;
17253;SDS011;32542;52.832;13.816;2023-03-03T01:34:59;9.40;;;6.22;;
17253;SDS011;32542;52.832;13.816;2023-03-03T01:38:03;9.80;;;6.30;;
17253;SDS011;32542;52.832;13.816;2023-03-03T01:41:06;10.07;;;6.25;;
17253;SDS011;32542;52.832;13.816;2023-03-03T01:44:10;8.30;;;6.35;;
17253;SDS011;32542;52.832;13.816;2023-03-03T01:47:15;10.07;;;6.22;;
17253;SDS011;32542;52.832;13.816;2023-03-03T01:53:50;8.18;;;5.65;;
17253;SDS011;32542;52.832;13.816;2023-03-03T01:56:57;7.95;;;6.13;;
17253;SDS011;32542;52.832;13.816;2023-03-03T02:00:03;7.50;;;5.93;;
17253;SDS011;32542;52.832;13.816;2023-03-03T02:03:12;12.57;;;6.63;;
17253;SDS011;32542;52.832;13.816;2023-03-03T02:06:17;8.13;;;5.97;;
17253;SDS011;32542;52.832;13.816;2023-03-03T02:09:26;7.82;;;5.90;;
17253;SDS011;32542;52.832;13.816;2023-03-03T02:12:36;8.52;;;6.25;;
17253;SDS011;32542;52.832;13.816;2023-03-03T02:15:42;7.68;;;5.75;;
17253;SDS011;32542;52.832;13.816;2023-03-03T02:18:46;6.68;;;5.43;;
17253;SDS011;32542;52.832;13.816;2023-03-03T02:21:50;8.00;;;5.18;;
17253;SDS011;32542;52.832;13.816;2023-03-03T02:24:55;8.48;;;5.90;;
17253;SDS011;32542;52.832;13.816;2023-03-03T02:28:04;7.93;;;5.60;;
17253;SDS011;32542;52.832;13.816;2023-03-03T02:31:08;7.22;;;5.35;;
17253;SDS011;32542;52.832;13.816;2023-03-03T02:34:15;7.78;;;6.03;;
17253;SDS011;32542;52.832;13.816;2023-03-03T02:37:18;6.40;;;5.30;;
17253;SDS011;32542;52.832;13.816;2023-03-03T02:40:21;6.47;;;5.22;;
17253;SDS011;32542;52.832;13.816;2023-03-03T02:43:30;6.53;;;5.32;;
17253;SDS011;32542;52.832;13.816;2023-03-03T02:46:38;6.60;;;5.13;;
17253;SDS011;32542;52.832;13.816;2023-03-03T02:49:42;6.57;;;5.20;;
17253;SDS011;32542;52.832;13.816;2023-03-03T02:52:45;6.18;;;4.65;;
17253;SDS011;32542;52.832;13.816;2023-03-03T02:55:48;6.38;;;5.03;;
17253;SDS011;32542;52.832;13.816;2023-03-03T02:58:52;7.00;;;4.85;;
17253;SDS011;32542;52.832;13.816;2023-03-03T03:01:56;9.63;;;5.30;;
17253;SDS011;32542;52.832;13.816;2023-03-03T03:04:59;9.40;;;5.00;;
17253;SDS011;32542;52.832;13.816;2023-03-03T03:08:02;5.78;;;4.97;;
17253;SDS011;32542;52.832;13.816;2023-03-03T03:11:05;6.72;;;5.00;;
17253;SDS011;32542;52.832;13.816;2023-03-03T03:14:11;7.78;;;5.38;;
17253;SDS011;32542;52.832;13.816;2023-03-03T03:17:16;6.18;;;4.80;;
17253;SDS011;32542;52.832;13.816;2023-03-03T03:20:20;6.82;;;5.22;;
17253;SDS011;32542;52.832;13.816;2023-03-03T03:23:23;6.05;;;4.80;;
17253;SDS011;32542;52.832;13.816;2023-03-03T03:26:26;6.78;;;4.45;;
17253;SDS011;32542;52.832;13.816;2023-03-03T03:29:31;6.03;;;4.72;;
17253;SDS011;32542;52.832;13.816;2023-03-03T03:32:34;7.03;;;5.00;;
17253;SDS011;32542;52.832;13.816;2023-03-03T03:35:38;7.35;;;4.72;;
17253;SDS011;32542;52.832;13.816;2023-03-03T03:38:47;6.13;;;4.97;;
17253;SDS011;32542;52.832;13.816;2023-03-03T03:41:50;5.60;;;4.32;;
17253;SDS011;32542;52.832;13.816;2023-03-03T03:44:55;4.82;;;4.13;;
17253;SDS011;32542;52.832;13.816;2023-03-03T03:47:59;4.72;;;4.10;;
17253;SDS011;32542;52.832;13.816;2023-03-03T03:51:03;6.00;;;4.60;;
17253;SDS011;32542;52.832;13.816;2023-03-03T03:54:07;5.90;;;4.53;;
17253;SDS011;32542;52.832;13.816;2023-03-03T03:57:11;6.10;;;4.25;;
17253;SDS011;32542;52.832;13.816;2023-03-03T04:00:16;6.65;;;4.50;;
17253;SDS011;32542;52.832;13.816;2023-03-03T04:03:27;7.25;;;4.38;;
17253;SDS011;32542;52.832;13.816;2023-03-03T04:06:30;4.35;;;3.67;;
17253;SDS011;32542;52.832;13.816;2023-03-03T04:09:34;4.38;;;3.67;;
17253;SDS011;32542;52.832;13.816;2023-03-03T04:12:38;4.72;;;4.10;;
17253;SDS011;32542;52.832;13.816;2023-03-03T04:15:47;4.30;;;3.50;;
17253;SDS011;32542;52.832;13.816;2023-03-03T04:18:50;5.72;;;3.92;;
17253;SDS011;32542;52.832;13.816;2023-03-03T04:21:54;5.15;;;3.83;;
17253;SDS011;32542;52.832;13.816;2023-03-03T04:24:57;5.30;;;3.72;;
17253;SDS011;32542;52.832;13.816;2023-03-03T04:28:00;5.32;;;3.58;;
17253;SDS011;32542;52.832;13.816;2023-03-03T04:31:07;4.15;;;3.45;;
17253;SDS011;32542;52.832;13.816;2023-03-03T04:34:10;5.35;;;3.60;;
17253;SDS011;32542;52.832;13.816;2023-03-03T04:37:16;5.82;;;3.53;;
17253;SDS011;32542;52.832;13.816;2023-03-03T04:40:19;4.25;;;3.50;;
17253;SDS011;32542;52.832;13.816;2023-03-03T04:43:24;4.70;;;3.80;;
17253;SDS011;32542;52.832;13.816;2023-03-03T04:46:29;6.85;;;3.88;;
17253;SDS011;32542;52.832;13.816;2023-03-03T04:49:32;4.03;;;3.42;;
17253;SDS011;32542;52.832;13.816;2023-03-03T04:52:35;4.40;;;3.90;;
17253;SDS011;32542;52.832;13.816;2023-03-03T04:55:40;6.45;;;4.00;;
17253;SDS011;32542;52.832;13.816;2023-03-03T04:58:43;4.13;;;3.25;;
17253;SDS011;32542;52.832;13.816;2023-03-03T05:01:48;4.10;;;3.22;;
17253;SDS011;32542;52.832;13.816;2023-03-03T05:04:52;4.10;;;3.50;;
17253;SDS011;32542;52.832;13.816;2023-03-03T05:07:55;4.38;;;3.38;;
17253;SDS011;32542;52.832;13.816;2023-03-03T05:10:58;4.10;;;3.35;;
17253;SDS011;32542;52.832;13.816;2023-03-03T05:14:02;3.85;;;3.10;;
17253;SDS011;32542;52.832;13.816;2023-03-03T05:17:06;3.80;;;3.25;;
17253;SDS011;32542;52.832;13.816;2023-03-03T05:20:10;3.42;;;3.10;;
17253;SDS011;32542;52.832;13.816;2023-03-03T05:23:14;4.30;;;3.30;;
17253;SDS011;32542;52.832;13.816;2023-03-03T05:26:17;3.50;;;2.95;;
17253;SDS011;32542;52.832;13.816;2023-03-03T05:29:20;4.57;;;3.30;;
17253;SDS011;32542;52.832;13.816;2023-03-03T05:32:24;3.45;;;3.08;;
17253;SDS011;32542;52.832;13.816;2023-03-03T05:35:27;3.10;;;2.80;;
17253;SDS011;32542;52.832;13.816;2023-03-03T05:38:31;3.60;;;3.08;;
17253;SDS011;32542;52.832;13.816;2023-03-03T05:41:34;3.67;;;2.83;;
17253;SDS011;32542;52.832;13.816;2023-03-03T05:44:37;3.33;;;3.03;;
17253;SDS011;32542;52.832;13.816;2023-03-03T05:47:41;3.17;;;2.88;;
17253;SDS011;32542;52.832;13.816;2023-03-03T05:50:44;3.58;;;3.08;;
17253;SDS011;32542;52.832;13.816;2023-03-03T05:53:47;3.63;;;2.90;;
17253;SDS011;32542;52.832;13.816;2023-03-03T05:56:50;3.35;;;2.90;;
17253;SDS011;32542;52.832;13.816;2023-03-03T05:59:53;3.17;;;2.70;;
17253;SDS011;32542;52.832;13.816;2023-03-03T06:02:58;3.08;;;2.78;;
17253;SDS011;32542;52.832;13.816;2023-03-03T06:06:01;5.35;;;2.92;;
17253;SDS011;32542;52.832;13.816;2023-03-03T06:09:04;4.22;;;3.15;;
17253;SDS011;32542;52.832;13.816;2023-03-03T06:12:07;3.83;;;2.88;;
17253;SDS011;32542;52.832;13.816;2023-03-03T06:15:10;4.28;;;2.50;;
17253;SDS011;32542;52.832;13.816;2023-03-03T06:18:15;4.43;;;2.97;;
17253;SDS011;32542;52.832;13.816;2023-03-03T06:21:18;4.28;;;2.58;;
17253;SDS011;32542;52.832;13.816;2023-03-03T06:24:21;4.40;;;2.42;;
17253;SDS011;32542;52.832;13.816;2023-03-03T06:27:25;3.20;;;2.63;;
17253;SDS011;32542;52.832;13.816;2023-03-03T06:30:28;3.10;;;2.60;;
17253;SDS011;32542;52.832;13.816;2023-03-03T06:33:33;3.05;;;2.55;;
17253;SDS011;32542;52.832;13.816;2023-03-03T06:36:36;3.53;;;2.58;;
17253;SDS011;32542;52.832;13.816;2023-03-03T06:39:39;3.85;;;2.97;;
17253;SDS011;32542;52.832;13.816;2023-03-03T06:42:42;2.95;;;2.60;;
17253;SDS011;32542;52.832;13.816;2023-03-03T06:45:45;3.47;;;2.88;;
17253;SDS011;32542;52.832;13.816;2023-03-03T06:48:50;3.10;;;2.80;;
17253;SDS011;32542;52.832;13.816;2023-03-03T06:51:53;3.67;;;2.60;;
17253;SDS011;32542;52.832;13.816;2023-03-03T06:54:57;3.33;;;2.63;;
17253;SDS011;32542;52.832;13.816;2023-03-03T06:58:04;3.20;;;2.63;;
17253;SDS011;32542;52.832;13.816;2023-03-03T07:01:14;3.50;;;2.75;;
17253;SDS011;32542;52.832;13.816;2023-03-03T07:04:23;3.75;;;2.90;;
17253;SDS011;32542;52.832;13.816;2023-03-03T07:07:29;3.58;;;2.90;;
17253;SDS011;32542;52.832;13.816;2023-03-03T07:10:32;2.80;;;2.55;;
17253;SDS011;32542;52.832;13.816;2023-03-03T07:13:43;2.70;;;2.40;;
17253;SDS011;32542;52.832;13.816;2023-03-03T07:16:50;2.83;;;2.53;;
17253;SDS011;32542;52.832;13.816;2023-03-03T07:19:59;2.90;;;2.60;;
17253;SDS011;32542;52.832;13.816;2023-03-03T07:23:07;2.92;;;2.50;;
17253;SDS011;32542;52.832;13.816;2023-03-03T07:26:20;4.20;;;2.40;;
17253;SDS011;32542;52.832;13.816;2023-03-03T07:29:25;2.88;;;2.58;;
17253;SDS011;32542;52.832;13.816;2023-03-03T07:32:33;2.60;;;2.17;;
17253;SDS011;32542;52.832;13.816;2023-03-03T07:35:43;3.25;;;2.55;;
17253;SDS011;32542;52.832;13.816;2023-03-03T07:38:48;3.15;;;2.50;;
17253;SDS011;32542;52.832;13.816;2023-03-03T07:41:57;3.00;;;2.40;;
17253;SDS011;32542;52.832;13.816;2023-03-03T07:45:21;3.35;;;2.40;;
17253;SDS011;32542;52.832;13.816;2023-03-03T07:48:29;2.65;;;2.20;;
17253;SDS011;32542;52.832;13.816;2023-03-03T07:51:38;2.70;;;2.30;;
17253;SDS011;32542;52.832;13.816;2023-03-03T07:54:43;2.47;;;2.25;;
17253;SDS011;32542;52.832;13.816;2023-03-03T07:57:47;2.65;;;2.35;;
17253;SDS011;32542;52.832;13.816;2023-03-03T08:04:31;2.55;;;2.10;;
17253;SDS011;32542;52.832;13.816;2023-03-03T08:07:42;3.38;;;2.10;;
17253;SDS011;32542;52.832;13.816;2023-03-03T08:10:46;2.30;;;2.10;;
17253;SDS011;32542;52.832;13.816;2023-03-03T08:13:50;2.67;;;2.35;;
17253;SDS011;32542;52.832;13.816;2023-03-03T08:16:53;2.47;;;2.28;;
17253;SDS011;32542;52.832;13.816;2023-03-03T08:20:00;2.65;;;2.15;;
17253;SDS011;32542;52.832;13.816;2023-03-03T08:23:12;2.30;;;2.10;;
17253;SDS011;32542;52.832;13.816;2023-03-03T08:26:16;2.35;;;2.00;;
17253;SDS011;32542;52.832;13.816;2023-03-03T08:29:19;2.35;;;1.98;;
17253;SDS011;32542;52.832;13.816;2023-03-03T08:32:22;2.28;;;2.08;;
17253;SDS011;32542;52.832;13.816;2023-03-03T08:35:26;2.50;;;2.30;;
17253;SDS011;32542;52.832;13.816;2023-03-03T08:38:30;2.40;;;2.10;;
17253;SDS011;32542;52.832;13.816;2023-03-03T08:41:33;2.75;;;2.28;;
17253;SDS011;32542;52.832;13.816;2023-03-03T08:44:36;3.13;;;2.40;;
17253;SDS011;32542;52.832;13.816;2023-03-03T08:47:40;2.85;;;2.20;;
17253;SDS011;32542;52.832;13.816;2023-03-03T08:50:43;6.35;;;2.38;;
17253;SDS011;32542;52.832;13.816;2023-03-03T08:53:48;4.60;;;2.20;;
17253;SDS011;32542;52.832;13.816;2023-03-03T08:56:51;3.33;;;1.80;;
17253;SDS011;32542;52.832;13.816;2023-03-03T08:59:54;2.75;;;2.15;;
17253;SDS011;32542;52.832;13.816;2023-03-03T09:02:57;2.13;;;1.70;;
17253;SDS011;32542;52.832;13.816;2023-03-03T09:06:00;3.35;;;2.13;;
17253;SDS011;32542;52.832;13.816;2023-03-03T09:09:04;2.70;;;1.85;;
17253;SDS011;32542;52.832;13.816;2023-03-03T09:12:12;4.30;;;2.22;;
17253;SDS011;32542;52.832;13.816;2023-03-03T09:15:19;3.67;;;2.00;;
17253;SDS011;32542;52.832;13.816;2023-03-03T09:18:25;4.45;;;2.03;;
17253;SDS011;32542;52.832;13.816;2023-03-03T09:21:33;2.53;;;2.00;;
17253;SDS011;32542;52.832;13.816;2023-03-03T09:24:38;4.50;;;2.20;;
17253;SDS011;32542;52.832;13.816;2023-03-03T09:27:43;2.85;;;1.92;;
17253;SDS011;32542;52.832;13.816;2023-03-03T09:30:47;3.92;;;2.20;;
17253;SDS011;32542;52.832;13.816;2023-03-03T09:33:51;2.55;;;2.22;;
17253;SDS011;32542;52.832;13.816;2023-03-03T09:36:58;3.22;;;2.17;;
17253;SDS011;32542;52.832;13.816;2023-03-03T09:40:06;2.88;;;2.03;;
17253;SDS011;32542;52.832;13.816;2023-03-03T09:43:34;3.53;;;2.58;;
17253;SDS011;32542;52.832;13.816;2023-03-03T09:46:50;2.20;;;1.90;;
17253;SDS011;32542;52.832;13.816;2023-03-03T09:50:07;2.05;;;1.85;;
17253;SDS011;32542;52.832;13.816;2023-03-03T09:53:24;2.88;;;2.10;;
17253;SDS011;32542;52.832;13.816;2023-03-03T09:56:38;4.63;;;1.83;;
17253;SDS011;32542;52.832;13.816;2023-03-03T09:59:54;1.85;;;1.65;;
17253;SDS011;32542;52.832;13.816;2023-03-03T10:03:18;2.58;;;2.03;;
17253;SDS011;32542;52.832;13.816;2023-03-03T10:06:43;2.80;;;1.80;;
17253;SDS011;32542;52.832;13.816;2023-03-03T10:09:55;4.47;;;2.15;;
17253;SDS011;32542;52.832;13.816;2023-03-03T10:13:18;2.08;;;1.88;;
17253;SDS011;32542;52.832;13.816;2023-03-03T10:16:31;2.00;;;1.80;;
17253;SDS011;32542;52.832;13.816;2023-03-03T10:19:49;2.50;;;1.90;;
17253;SDS011;32542;52.832;13.816;2023-03-03T10:23:03;5.03;;;1.80;;
17253;SDS011;32542;52.832;13.816;2023-03-03T10:26:25;2.78;;;2.00;;
17253;SDS011;32542;52.832;13.816;2023-03-03T10:29:50;10.02;;;2.20;;
17253;SDS011;32542;52.832;13.816;2023-03-03T10:33:04;4.50;;;1.90;;
17253;SDS011;32542;52.832;13.816;2023-03-03T10:39:59;3.22;;;2.10;;
17253;SDS011;32542;52.832;13.816;2023-03-03T10:43:21;3.55;;;2.20;;
17253;SDS011;32542;52.832;13.816;2023-03-03T10:46:52;5.45;;;2.10;;
17253;SDS011;32542;52.832;13.816;2023-03-03T10:50:06;8.35;;;2.83;;
17253;SDS011;32542;52.832;13.816;2023-03-03T10:53:20;3.10;;;2.33;;
17253;SDS011;32542;52.832;13.816;2023-03-03T10:56:32;3.58;;;2.38;;
17253;SDS011;32542;52.832;13.816;2023-03-03T10:59:57;4.95;;;2.30;;
17253;SDS011;32542;52.832;13.816;2023-03-03T11:03:23;9.57;;;2.72;;
17253;SDS011;32542;52.832;13.816;2023-03-03T11:06:42;4.35;;;2.10;;
17253;SDS011;32542;52.832;13.816;2023-03-03T11:10:01;6.45;;;2.20;;
17253;SDS011;32542;52.832;13.816;2023-03-03T11:13:21;6.93;;;2.20;;
17253;SDS011;32542;52.832;13.816;2023-03-03T11:16:39;7.53;;;2.72;;
17253;SDS011;32542;52.832;13.816;2023-03-03T11:19:54;11.82;;;2.75;;
17253;SDS011;32542;52.832;13.816;2023-03-03T11:23:08;13.00;;;2.80;;
17253;SDS011;32542;52.832;13.816;2023-03-03T11:26:29;5.45;;;2.35;;
17253;SDS011;32542;52.832;13.816;2023-03-03T11:29:49;10.90;;;2.35;;
17253;SDS011;32542;52.832;13.816;2023-03-03T11:33:05;5.22;;;3.22;;
17253;SDS011;32542;52.832;13.816;2023-03-03T11:36:15;6.78;;;4.30;;
17253;SDS011;32542;52.832;13.816;2023-03-03T11:39:22;10.25;;;4.80;;
17253;SDS011;32542;52.832;13.816;2023-03-03T11:42:31;7.68;;;4.63;;
17253;SDS011;32542;52.832;13.816;2023-03-03T11:45:42;5.63;;;4.28;;
17253;SDS011;32542;52.832;13.816;2023-03-03T11:48:51;13.40;;;4.68;;
17253;SDS011;32542;52.832;13.816;2023-03-03T11:52:04;8.05;;;4.88;;
17253;SDS011;32542;52.832;13.816;2023-03-03T11:55:23;9.27;;;4.80;;
17253;SDS011;32542;52.832;13.816;2023-03-03T11:58:30;9.45;;;5.30;;
17253;SDS011;32542;52.832;13.816;2023-03-03T12:01:41;8.75;;;5.40;;
17253;SDS011;32542;52.832;13.816;2023-03-03T12:04:52;9.15;;;6.50;;
17253;SDS011;32542;52.832;13.816;2023-03-03T12:08:01;12.38;;;5.60;;
17253;SDS011;32542;52.832;13.816;2023-03-03T12:11:11;11.65;;;6.20;;
17253;SDS011;32542;52.832;13.816;2023-03-03T12:17:53;9.38;;;6.70;;
17253;SDS011;32542;52.832;13.816;2023-03-03T12:21:18;11.60;;;6.55;;
17253;SDS011;32542;52.832;13.816;2023-03-03T12:25:07;8.82;;;6.43;;
17253;SDS011;32542;52.832;13.816;2023-03-03T12:28:29;11.30;;;6.78;;
17253;SDS011;32542;52.832;13.816;2023-03-03T12:31:39;10.10;;;6.90;;
17253;SDS011;32542;52.832;13.816;2023-03-03T12:34:51;8.73;;;6.43;;
17253;SDS011;32542;52.832;13.816;2023-03-03T12:38:00;15.48;;;7.65;;
17253;SDS011;32542;52.832;13.816;2023-03-03T12:41:15;19.00;;;6.78;;
17253;SDS011;32542;52.832;13.816;2023-03-03T12:44:24;28.63;;;7.53;;
17253;SDS011;32542;52.832;13.816;2023-03-03T12:47:34;18.05;;;6.78;;
17253;SDS011;32542;52.832;13.816;2023-03-03T12:50:42;12.88;;;6.30;;
17253;SDS011;32542;52.832;13.816;2023-03-03T12:57:33;12.88;;;7.15;;
17253;SDS011;32542;52.832;13.816;2023-03-03T13:00:44;12.18;;;6.47;;
17253;SDS011;32542;52.832;13.816;2023-03-03T13:03:57;17.38;;;7.30;;
17253;SDS011;32542;52.832;13.816;2023-03-03T13:07:09;26.13;;;8.35;;
17253;SDS011;32542;52.832;13.816;2023-03-03T13:10:17;17.13;;;7.43;;
17253;SDS011;32542;52.832;13.816;2023-03-03T13:13:26;17.73;;;7.18;;
17253;SDS011;32542;52.832;13.816;2023-03-03T13:16:37;13.07;;;7.07;;
17253;SDS011;32542;52.832;13.816;2023-03-03T13:19:45;19.58;;;7.85;;
17253;SDS011;32542;52.832;13.816;2023-03-03T13:22:54;20.33;;;8.20;;
17253;SDS011;32542;52.832;13.816;2023-03-03T13:26:05;21.17;;;7.10;;
17253;SDS011;32542;52.832;13.816;2023-03-03T13:29:18;14.25;;;7.43;;
17253;SDS011;32542;52.832;13.816;2023-03-03T13:32:27;16.13;;;7.40;;
17253;SDS011;32542;52.832;13.816;2023-03-03T13:35:39;12.95;;;8.00;;
17253;SDS011;32542;52.832;13.816;2023-03-03T13:38:47;21.73;;;8.25;;
17253;SDS011;32542;52.832;13.816;2023-03-03T13:41:55;21.25;;;8.23;;
17253;SDS011;32542;52.832;13.816;2023-03-03T13:45:12;19.30;;;9.23;;
17253;SDS011;32542;52.832;13.816;2023-03-03T13:48:24;15.10;;;8.25;;
17253;SDS011;32542;52.832;13.816;2023-03-03T13:51:40;19.98;;;7.70;;
17253;SDS011;32542;52.832;13.816;2023-03-03T13:54:52;16.95;;;7.97;;
17253;SDS011;32542;52.832;13.816;2023-03-03T13:58:09;19.63;;;8.40;;
17253;SDS011;32542;52.832;13.816;2023-03-03T14:01:26;20.42;;;8.38;;
17253;SDS011;32542;52.832;13.816;2023-03-03T14:04:37;25.63;;;8.23;;
17253;SDS011;32542;52.832;13.816;2023-03-03T14:07:50;25.08;;;7.72;;
17253;SDS011;32542;52.832;13.816;2023-03-03T14:11:03;18.48;;;7.93;;
17253;SDS011;32542;52.832;13.816;2023-03-03T14:14:14;19.00;;;7.40;;
17253;SDS011;32542;52.832;13.816;2023-03-03T14:17:30;19.60;;;7.95;;
17253;SDS011;32542;52.832;13.816;2023-03-03T14:20:36;26.27;;;7.63;;
17253;SDS011;32542;52.832;13.816;2023-03-03T14:23:47;19.67;;;8.02;;
17253;SDS011;32542;52.832;13.816;2023-03-03T14:26:53;17.25;;;7.70;;
17253;SDS011;32542;52.832;13.816;2023-03-03T14:29:58;17.27;;;7.85;;
17253;SDS011;32542;52.832;13.816;2023-03-03T14:33:04;20.52;;;8.05;;
17253;SDS011;32542;52.832;13.816;2023-03-03T14:36:18;29.60;;;9.32;;
17253;SDS011;32542;52.832;13.816;2023-03-03T14:39:31;29.92;;;9.52;;
17253;SDS011;32542;52.832;13.816;2023-03-03T14:42:37;36.38;;;8.63;;
17253;SDS011;32542;52.832;13.816;2023-03-03T14:45:49;20.98;;;8.05;;
17253;SDS011;32542;52.832;13.816;2023-03-03T14:48:56;24.75;;;8.18;;
17253;SDS011;32542;52.832;13.816;2023-03-03T14:52:00;28.23;;;7.75;;
17253;SDS011;32542;52.832;13.816;2023-03-03T14:55:26;24.35;;;7.70;;
17253;SDS011;32542;52.832;13.816;2023-03-03T14:58:34;23.20;;;7.95;;
17253;SDS011;32542;52.832;13.816;2023-03-03T15:01:41;19.83;;;7.63;;
17253;SDS011;32542;52.832;13.816;2023-03-03T15:04:46;26.75;;;8.00;;
17253;SDS011;32542;52.832;13.816;2023-03-03T15:07:51;18.90;;;7.93;;
17253;SDS011;32542;52.832;13.816;2023-03-03T15:11:10;17.70;;;7.75;;
17253;SDS011;32542;52.832;13.816;2023-03-03T15:14:15;22.17;;;7.78;;
17253;SDS011;32542;52.832;13.816;2023-03-03T15:17:25;20.73;;;8.20;;
17253;SDS011;32542;52.832;13.816;2023-03-03T15:20:36;18.45;;;8.30;;
17253;SDS011;32542;52.832;13.816;2023-03-03T15:23:44;18.02;;;8.32;;
17253;SDS011;32542;52.832;13.816;2023-03-03T15:26:55;15.48;;;7.63;;
17253;SDS011;32542;52.832;13.816;2023-03-03T15:30:08;17.38;;;8.35;;
17253;SDS011;32542;52.832;13.816;2023-03-03T15:33:23;14.27;;;7.60;;
17253;SDS011;32542;52.832;13.816;2023-03-03T15:36:34;18.42;;;8.63;;
17253;SDS011;32542;52.832;13.816;2023-03-03T15:39:43;15.90;;;8.65;;
17253;SDS011;32542;52.832;13.816;2023-03-03T15:42:54;17.45;;;8.30;;
17253;SDS011;32542;52.832;13.816;2023-03-03T15:46:05;17.85;;;8.18;;
17253;SDS011;32542;52.832;13.816;2023-03-03T15:49:22;15.18;;;8.00;;
17253;SDS011;32542;52.832;13.816;2023-03-03T15:52:49;24.15;;;7.93;;
17253;SDS011;32542;52.832;13.816;2023-03-03T15:56:08;21.35;;;8.40;;
17253;SDS011;32542;52.832;13.816;2023-03-03T15:59:24;15.45;;;7.90;;
17253;SDS011;32542;52.832;13.816;2023-03-03T16:02:42;24.60;;;8.25;;
17253;SDS011;32542;52.832;13.816;2023-03-03T16:05:52;15.07;;;7.68;;
17253;SDS011;32542;52.832;13.816;2023-03-03T16:08:59;26.13;;;8.60;;
17253;SDS011;32542;52.832;13.816;2023-03-03T16:12:10;16.25;;;7.97;;
17253;SDS011;32542;52.832;13.816;2023-03-03T16:15:22;16.52;;;8.48;;
17253;SDS011;32542;52.832;13.816;2023-03-03T16:18:36;16.88;;;8.45;;
17253;SDS011;32542;52.832;13.816;2023-03-03T16:21:59;22.17;;;8.45;;
17253;SDS011;32542;52.832;13.816;2023-03-03T16:25:17;16.63;;;8.10;;
17253;SDS011;32542;52.832;13.816;2023-03-03T16:28:33;17.45;;;8.43;;
17253;SDS011;32542;52.832;13.816;2023-03-03T16:31:46;18.60;;;9.38;;
17253;SDS011;32542;52.832;13.816;2023-03-03T16:34:55;12.75;;;8.00;;
17253;SDS011;32542;52.832;13.816;2023-03-03T16:38:02;21.25;;;8.93;;
17253;SDS011;32542;52.832;13.816;2023-03-03T16:41:11;15.77;;;8.23;;
17253;SDS011;32542;52.832;13.816;2023-03-03T16:44:29;15.50;;;8.30;;
17253;SDS011;32542;52.832;13.816;2023-03-03T16:47:43;18.05;;;8.48;;
17253;SDS011;32542;52.832;13.816;2023-03-03T16:50:58;20.48;;;8.77;;
17253;SDS011;32542;52.832;13.816;2023-03-03T16:54:08;12.60;;;7.95;;
17253;SDS011;32542;52.832;13.816;2023-03-03T16:57:23;15.93;;;8.82;;
17253;SDS011;32542;52.832;13.816;2023-03-03T17:00:35;16.20;;;8.75;;
17253;SDS011;32542;52.832;13.816;2023-03-03T17:03:46;15.95;;;9.02;;
17253;SDS011;32542;52.832;13.816;2023-03-03T17:06:59;24.15;;;9.55;;
17253;SDS011;32542;52.832;13.816;2023-03-03T17:17:18;15.48;;;7.88;;
17253;SDS011;32542;52.832;13.816;2023-03-03T17:20:29;15.73;;;8.60;;
17253;SDS011;32542;52.832;13.816;2023-03-03T17:23:45;23.52;;;13.25;;
17253;SDS011;32542;52.832;13.816;2023-03-03T17:26:59;42.17;;;25.88;;
17253;SDS011;32542;52.832;13.816;2023-03-03T17:30:11;59.05;;;35.28;;
17253;SDS011;32542;52.832;13.816;2023-03-03T17:33:25;68.70;;;45.38;;
17253;SDS011;32542;52.832;13.816;2023-03-03T17:36:42;73.78;;;52.85;;
17253;SDS011;32542;52.832;13.816;2023-03-03T17:40:05;82.22;;;58.15;;
17253;SDS011;32542;52.832;13.816;2023-03-03T17:43:23;65.07;;;43.60;;
17253;SDS011;32542;52.832;13.816;2023-03-03T17:46:32;52.97;;;36.92;;
17253;SDS011;32542;52.832;13.816;2023-03-03T17:49:45;46.65;;;31.95;;
17253;SDS011;32542;52.832;13.816;2023-03-03T17:56:34;46.53;;;29.35;;
17253;SDS011;32542;52.832;13.816;2023-03-03T17:59:54;38.08;;;27.20;;
17253;SDS011;32542;52.832;13.816;2023-03-03T18:03:20;40.05;;;27.45;;
17253;SDS011;32542;52.832;13.816;2023-03-03T18:10:30;40.28;;;27.17;;
17253;SDS011;32542;52.832;13.816;2023-03-03T18:17:26;36.55;;;26.98;;
17253;SDS011;32542;52.832;13.816;2023-03-03T18:27:40;41.70;;;28.75;;
17253;SDS011;32542;52.832;13.816;2023-03-03T18:30:54;42.17;;;27.17;;
17253;SDS011;32542;52.832;13.816;2023-03-03T18:34:00;46.85;;;28.75;;
17253;SDS011;32542;52.832;13.816;2023-03-03T18:37:09;47.22;;;28.52;;
17253;SDS011;32542;52.832;13.816;2023-03-03T18:40:35;44.33;;;29.33;;
17253;SDS011;32542;52.832;13.816;2023-03-03T18:43:53;39.03;;;27.30;;
17253;SDS011;32542;52.832;13.816;2023-03-03T18:47:00;43.83;;;28.88;;
17253;SDS011;32542;52.832;13.816;2023-03-03T18:50:07;46.55;;;29.60;;
17253;SDS011;32542;52.832;13.816;2023-03-03T18:53:19;42.58;;;28.33;;
17253;SDS011;32542;52.832;13.816;2023-03-03T18:59:55;41.05;;;28.30;;
17253;SDS011;32542;52.832;13.816;2023-03-03T19:03:17;40.85;;;27.98;;
17253;SDS011;32542;52.832;13.816;2023-03-03T19:06:30;42.25;;;29.70;;
17253;SDS011;32542;52.832;13.816;2023-03-03T19:09:55;50.05;;;29.40;;
17253;SDS011;32542;52.832;13.816;2023-03-03T19:13:02;41.17;;;27.67;;
17253;SDS011;32542;52.832;13.816;2023-03-03T19:16:35;38.75;;;27.02;;
17253;SDS011;32542;52.832;13.816;2023-03-03T19:19:45;40.80;;;29.17;;
17253;SDS011;32542;52.832;13.816;2023-03-03T19:23:03;42.05;;;28.25;;